createdAt,value
2023-09-05T00:02:08.393Z,101259.50
2023-09-05T00:04:36.814Z,101243.09
2023-09-05T00:07:04.619Z,101255.53
2023-09-05T00:09:32.382Z,101246.03
2023-09-05T00:12:00.193Z,101252.03
2023-09-05T00:14:30.015Z,101245.00
2023-09-05T00:16:57.763Z,101237.19
2023-09-05T00:19:25.540Z,101238.13
2023-09-05T00:21:53.284Z,101236.38
2023-09-05T00:24:32.666Z,101241.50
2023-09-05T00:27:01.771Z,101251.94
2023-09-05T00:29:31.722Z,101245.59
2023-09-05T00:32:01.012Z,101249.09
2023-09-05T00:34:29.595Z,101242.25
2023-09-05T00:36:59.348Z,101240.78
2023-09-05T00:39:27.508Z,101248.13
2023-09-05T00:41:56.152Z,101240.56
2023-09-05T00:44:24.006Z,101232.56
2023-09-05T00:46:56.092Z,101237.16
2023-09-05T00:49:28.945Z,101243.72
2023-09-05T00:51:58.808Z,101235.41
2023-09-05T00:54:26.792Z,101240.13
2023-09-05T00:56:55.262Z,101237.75
2023-09-05T00:59:23.316Z,101243.53
2023-09-05T01:01:51.159Z,101237.81
2023-09-05T01:04:20.472Z,101248.25
2023-09-05T01:06:55.595Z,101241.72
2023-09-05T01:09:30.125Z,101237.53
2023-09-05T01:11:58.707Z,101241.91
2023-09-05T01:14:26.496Z,101225.25
2023-09-05T01:17:02.202Z,101240.84
2023-09-05T01:19:31.803Z,101230.72
2023-09-05T01:22:07.341Z,101228.59
2023-09-05T01:24:36.917Z,101235.09
2023-09-05T01:27:05.816Z,101234.47
2023-09-05T01:29:37.902Z,101231.94
2023-09-05T01:32:06.684Z,101226.03
2023-09-05T01:34:34.424Z,101228.97
2023-09-05T01:37:02.280Z,101231.97
2023-09-05T01:39:30.025Z,101225.44
2023-09-05T01:42:00.124Z,101225.06
2023-09-05T01:44:28.208Z,101221.13
2023-09-05T01:46:56.001Z,101218.88
2023-09-05T01:49:23.841Z,101214.75
2023-09-05T01:51:51.595Z,101223.69
2023-09-05T01:54:19.332Z,101212.13
2023-09-05T01:56:47.042Z,101222.25
2023-09-05T01:59:16.536Z,101228.81
2023-09-05T02:01:44.323Z,101227.59
2023-09-05T02:04:12.057Z,101226.81
2023-09-05T02:06:40.625Z,101234.22
2023-09-05T02:09:09.101Z,101237.41
2023-09-05T02:11:36.890Z,101238.22
2023-09-05T02:14:04.661Z,101232.13
2023-09-05T02:16:34.462Z,101245.47
2023-09-05T02:19:02.421Z,101240.81
2023-09-05T02:21:30.160Z,101227.59
2023-09-05T02:23:57.932Z,101243.16
2023-09-05T02:26:25.644Z,101234.53
2023-09-05T02:28:53.387Z,101238.38
2023-09-05T02:31:21.922Z,101250.88
2023-09-05T02:33:51.158Z,101248.72
2023-09-05T02:36:19.815Z,101251.44
2023-09-05T02:38:47.981Z,101246.56
2023-09-05T02:41:16.156Z,101256.59
2023-09-05T02:43:44.560Z,101239.72
2023-09-05T02:46:12.312Z,101252.09
2023-09-05T02:48:41.255Z,101250.91
2023-09-05T02:51:11.588Z,101253.06
2023-09-05T02:53:39.790Z,101257.00
2023-09-05T02:56:07.621Z,101259.22
2023-09-05T02:58:35.712Z,101256.41
2023-09-05T03:01:04.369Z,101254.50
2023-09-05T03:03:33.000Z,101255.19
2023-09-05T03:06:10.855Z,101254.16
2023-09-05T03:08:39.674Z,101258.16
2023-09-05T03:11:07.536Z,101256.72
2023-09-05T03:13:35.334Z,101257.06
2023-09-05T03:16:03.158Z,101260.03
2023-09-05T03:18:30.894Z,101258.53
2023-09-05T03:20:58.692Z,101243.25
2023-09-05T03:23:27.947Z,101260.66
2023-09-05T03:25:55.934Z,101253.84
2023-09-05T03:28:23.706Z,101256.53
2023-09-05T03:30:51.522Z,101255.72
2023-09-05T03:33:19.290Z,101254.84
2023-09-05T03:35:47.094Z,101261.94
2023-09-05T03:38:14.840Z,101242.38
2023-09-05T03:40:43.964Z,101248.25
2023-09-05T03:43:11.676Z,101252.75
2023-09-05T03:45:39.417Z,101244.88
2023-09-05T03:48:08.242Z,101245.81
2023-09-05T03:50:36.026Z,101241.09
2023-09-05T03:53:03.767Z,101246.84
2023-09-05T03:55:35.666Z,101245.97
2023-09-05T03:58:07.747Z,101251.06
2023-09-05T04:00:35.597Z,101246.25
2023-09-05T04:03:03.966Z,101253.09
2023-09-05T04:05:32.121Z,101256.63
2023-09-05T04:07:59.933Z,101252.44
2023-09-05T04:10:27.700Z,101251.56
2023-09-05T04:12:55.406Z,101254.28
2023-09-05T04:15:24.712Z,101251.66
2023-09-05T04:17:53.075Z,101247.25
2023-09-05T04:20:21.294Z,101246.44
2023-09-05T04:22:49.069Z,101241.25
2023-09-05T04:25:16.993Z,101248.28
2023-09-05T04:27:44.771Z,101239.41
2023-09-05T04:30:14.146Z,101238.47
2023-09-05T04:32:44.336Z,101236.72
2023-09-05T04:35:12.492Z,101243.38
2023-09-05T04:37:40.175Z,101242.38
2023-09-05T04:40:09.799Z,101239.56
2023-09-05T04:42:39.598Z,101240.22
2023-09-05T04:45:08.380Z,101238.38
2023-09-05T04:47:36.331Z,101243.25
2023-09-05T04:50:06.219Z,101236.16
2023-09-05T04:52:34.023Z,101241.34
2023-09-05T04:55:01.946Z,101249.44
2023-09-05T04:57:30.470Z,101251.81
2023-09-05T04:59:59.229Z,101250.88
2023-09-05T05:02:27.894Z,101249.19
2023-09-05T05:04:56.421Z,101253.00
2023-09-05T05:07:25.545Z,101245.41
2023-09-05T05:09:53.621Z,101250.84
2023-09-05T05:12:21.451Z,101244.72
2023-09-05T05:14:49.189Z,101256.53
2023-09-05T05:17:16.944Z,101258.63
2023-09-05T05:19:44.928Z,101258.19
2023-09-05T05:22:12.938Z,101266.44
2023-09-05T05:24:41.995Z,101251.09
2023-09-05T05:27:09.787Z,101249.84
2023-09-05T05:29:37.526Z,101255.84
2023-09-05T05:32:13.317Z,101253.44
2023-09-05T05:34:41.021Z,101243.97
2023-09-05T05:37:08.779Z,101253.59
2023-09-05T05:39:37.360Z,101246.47
2023-09-05T05:42:06.943Z,101252.25
2023-09-05T05:44:34.945Z,101241.34
2023-09-05T05:47:02.730Z,101242.78
2023-09-05T05:49:30.915Z,101254.53
2023-09-05T05:51:58.770Z,101243.94
2023-09-05T05:54:26.632Z,101244.06
2023-09-05T05:56:56.400Z,101252.97
2023-09-05T05:59:28.654Z,101251.38
2023-09-05T06:01:56.973Z,101255.91
2023-09-05T06:04:25.813Z,101252.44
2023-09-05T06:06:54.258Z,101254.47
2023-09-05T06:09:22.389Z,101256.13
2023-09-05T06:11:50.134Z,101257.09
2023-09-05T06:14:17.890Z,101260.63
2023-09-05T06:16:47.890Z,101254.63
2023-09-05T06:19:16.031Z,101259.16
2023-09-05T06:21:48.143Z,101260.28
2023-09-05T06:24:16.164Z,101266.81
2023-09-05T06:26:46.336Z,101259.91
2023-09-05T06:29:20.541Z,101264.53
2023-09-05T06:31:50.335Z,101267.22
2023-09-05T06:34:22.820Z,101265.47
2023-09-05T06:36:50.598Z,101270.94
2023-09-05T06:39:18.356Z,101258.88
2023-09-05T06:41:49.169Z,101268.41
2023-09-05T06:44:17.295Z,101266.03
2023-09-05T06:46:45.165Z,101264.88
2023-09-05T06:49:14.268Z,101263.97
2023-09-05T06:51:42.042Z,101262.41
2023-09-05T06:54:09.795Z,101268.91
2023-09-05T06:56:37.582Z,101267.50
2023-09-05T06:59:05.940Z,101268.72
2023-09-05T07:01:34.891Z,101258.41
2023-09-05T07:04:03.179Z,101272.66
2023-09-05T07:06:32.334Z,101258.84
2023-09-05T07:09:01.832Z,101261.97
2023-09-05T07:11:29.576Z,101257.06
2023-09-05T07:13:57.321Z,101261.88
2023-09-05T07:16:25.091Z,101257.88
2023-09-05T07:18:53.024Z,101258.34
2023-09-05T07:21:20.741Z,101263.03
2023-09-05T07:23:49.919Z,101264.38
2023-09-05T07:26:18.724Z,101262.94
2023-09-05T07:28:48.328Z,101251.00
2023-09-05T07:31:18.276Z,101249.28
2023-09-05T07:33:46.208Z,101248.66
2023-09-05T07:36:16.765Z,101250.56
2023-09-05T07:38:44.541Z,101242.47
2023-09-05T07:41:13.668Z,101252.72
2023-09-05T07:43:41.389Z,101250.78
2023-09-05T07:46:09.225Z,101258.41
2023-09-05T07:48:37.009Z,101258.34
2023-09-05T07:51:07.026Z,101260.91
2023-09-05T07:53:36.177Z,101254.59
2023-09-05T07:56:04.299Z,101256.03
2023-09-05T07:58:33.793Z,101256.41
2023-09-05T08:01:04.666Z,101239.91
2023-09-05T08:03:32.428Z,101251.75
2023-09-05T08:06:00.236Z,101236.97
2023-09-05T08:08:28.177Z,101245.44
2023-09-05T08:10:56.088Z,101235.38
2023-09-05T08:13:26.292Z,101232.44
2023-09-05T08:15:55.563Z,101234.56
2023-09-05T08:18:23.386Z,101239.69
2023-09-05T08:20:51.168Z,101235.13
2023-09-05T08:23:18.867Z,101232.72
2023-09-05T08:25:52.658Z,101227.59
2023-09-05T08:28:20.612Z,101220.69
2023-09-05T08:30:48.532Z,101225.19
2023-09-05T08:33:18.255Z,101227.03
2023-09-05T08:35:46.366Z,101214.41
2023-09-05T08:38:14.958Z,101216.59
2023-09-05T08:40:46.420Z,101215.81
2023-09-05T08:43:14.261Z,101216.00
2023-09-05T08:45:45.955Z,101207.94
2023-09-05T08:48:14.020Z,101214.91
2023-09-05T08:50:43.347Z,101204.19
2023-09-05T08:53:16.570Z,101207.59
2023-09-05T08:55:46.090Z,101204.97
2023-09-05T08:58:15.667Z,101202.50
2023-09-05T09:00:45.637Z,101204.78
2023-09-05T09:03:15.396Z,101208.00
2023-09-05T09:05:47.683Z,101206.44
2023-09-05T09:08:16.966Z,101207.91
2023-09-05T09:10:44.798Z,101199.88
2023-09-05T09:13:16.590Z,101205.72
2023-09-05T09:15:47.205Z,101211.69
2023-09-05T09:18:15.790Z,101205.16
2023-09-05T09:20:45.907Z,101209.09
2023-09-05T09:23:14.304Z,101207.88
2023-09-05T09:25:48.711Z,101210.69
2023-09-05T09:28:24.646Z,101202.84
2023-09-05T09:30:59.479Z,101203.75
2023-09-05T09:33:27.630Z,101195.56
2023-09-05T09:36:07.599Z,101187.97
2023-09-05T09:38:35.769Z,101190.00
2023-09-05T09:41:05.300Z,101183.91
2023-09-05T09:43:33.854Z,101193.72
2023-09-05T09:46:03.046Z,101188.38
2023-09-05T09:48:31.759Z,101190.97
2023-09-05T09:51:01.429Z,101192.25
2023-09-05T09:53:35.858Z,101191.41
2023-09-05T09:56:06.007Z,101194.69
2023-09-05T09:58:34.083Z,101194.97
2023-09-05T10:01:02.463Z,101190.53
2023-09-05T10:03:30.582Z,101185.44
2023-09-05T10:05:58.951Z,101180.09
2023-09-05T10:08:29.996Z,101176.19
2023-09-05T10:10:59.864Z,101182.75
2023-09-05T10:13:34.108Z,101182.13
2023-09-05T10:16:03.366Z,101179.88
2023-09-05T10:18:39.248Z,101176.75
2023-09-05T10:21:07.613Z,101174.22
2023-09-05T10:23:36.281Z,101164.66
2023-09-05T10:26:05.914Z,101171.41
2023-09-05T10:28:36.504Z,101168.16
2023-09-05T10:31:08.383Z,101174.53
2023-09-05T10:33:38.202Z,101172.25
2023-09-05T10:36:07.536Z,101168.59
2023-09-05T10:38:37.568Z,101169.00
2023-09-05T10:41:07.704Z,101162.75
2023-09-05T10:43:36.164Z,101162.47
2023-09-05T10:46:04.609Z,101160.19
2023-09-05T10:48:38.151Z,101162.25
2023-09-05T10:51:07.170Z,101159.38
2023-09-05T10:53:35.808Z,101148.66
2023-09-05T10:56:03.927Z,101150.44
2023-09-05T10:58:49.311Z,101145.06
2023-09-05T11:01:54.180Z,101145.94
2023-09-05T11:04:27.757Z,101145.25
2023-09-05T11:06:57.355Z,101143.44
2023-09-05T11:09:25.963Z,101145.34
2023-09-05T11:11:54.947Z,101141.63
2023-09-05T11:14:34.652Z,101141.31
2023-09-05T11:17:03.528Z,101141.78
2023-09-05T11:19:33.046Z,101133.94
2023-09-05T11:22:09.819Z,101138.06
2023-09-05T11:24:38.081Z,101144.09
2023-09-05T11:27:07.942Z,101131.69
2023-09-05T11:29:40.337Z,101131.03
2023-09-05T11:32:08.535Z,101128.22
2023-09-05T11:34:36.585Z,101128.03
2023-09-05T11:37:04.390Z,101124.78
2023-09-05T11:39:32.110Z,101134.53
2023-09-05T11:42:01.631Z,101129.59
2023-09-05T11:44:39.753Z,101116.31
2023-09-05T11:47:08.059Z,101116.13
2023-09-05T11:49:36.826Z,101108.25
2023-09-05T11:52:05.646Z,101111.34
2023-09-05T11:54:33.644Z,101108.84
2023-09-05T11:57:03.678Z,101109.47
2023-09-05T11:59:31.703Z,101108.09
2023-09-05T12:02:07.902Z,101101.66
2023-09-05T12:04:36.205Z,101100.63
2023-09-05T12:07:06.524Z,101104.81
2023-09-05T12:09:34.655Z,101108.75
2023-09-05T12:12:13.261Z,101102.53
2023-09-05T12:14:50.555Z,101102.28
2023-09-05T12:17:20.662Z,101108.13
2023-09-05T12:19:48.972Z,101100.25
2023-09-05T12:22:28.511Z,101093.44
2023-09-05T12:25:11.272Z,101096.75
2023-09-05T12:27:40.538Z,101095.94
2023-09-05T12:30:10.076Z,101096.53
2023-09-05T12:32:39.705Z,101090.13
2023-09-05T12:35:08.073Z,101088.25
2023-09-05T12:37:35.811Z,101078.69
2023-09-05T12:40:06.513Z,101077.47
2023-09-05T12:42:36.827Z,101077.47
2023-09-05T12:45:05.824Z,101081.56
2023-09-05T12:47:33.636Z,101089.84
2023-09-05T12:50:10.633Z,101084.66
2023-09-05T12:52:39.624Z,101085.31
2023-09-05T12:55:08.584Z,101079.50
2023-09-05T12:57:36.363Z,101073.28
2023-09-05T13:00:04.322Z,101067.47
2023-09-05T13:02:32.111Z,101071.03
2023-09-05T13:05:00.242Z,101069.13
2023-09-05T13:07:29.470Z,101071.19
2023-09-05T13:09:57.221Z,101065.78
2023-09-05T13:12:27.334Z,101060.59
2023-09-05T13:14:55.336Z,101066.59
2023-09-05T13:17:23.387Z,101060.59
2023-09-05T13:19:51.172Z,101058.50
2023-09-05T13:22:19.160Z,101058.09
2023-09-05T13:24:48.527Z,101058.44
2023-09-05T13:27:16.315Z,101057.34
2023-09-05T13:29:44.164Z,101052.81
2023-09-05T13:32:11.993Z,101062.38
2023-09-05T13:34:40.001Z,101054.53
2023-09-05T13:37:09.056Z,101053.75
2023-09-05T13:39:36.980Z,101044.66
2023-09-05T13:42:06.616Z,101043.22
2023-09-05T13:44:34.867Z,101044.69
2023-09-05T13:47:02.614Z,101044.97
2023-09-05T13:49:30.487Z,101033.88
2023-09-05T13:51:58.254Z,101039.41
2023-09-05T13:54:26.555Z,101040.88
2023-09-05T13:56:55.662Z,101022.44
2023-09-05T13:59:25.009Z,101034.03
2023-09-05T14:01:52.937Z,101036.38
2023-09-05T14:04:20.931Z,101020.16
2023-09-05T14:06:48.721Z,101022.75
2023-09-05T14:09:17.347Z,101022.53
2023-09-05T14:11:46.802Z,101015.72
2023-09-05T14:14:17.091Z,101017.66
2023-09-05T14:16:46.426Z,101014.09
2023-09-05T14:19:14.299Z,101014.38
2023-09-05T14:21:42.114Z,101011.09
2023-09-05T14:24:11.193Z,101005.94
2023-09-05T14:26:39.236Z,100996.00
2023-09-05T14:29:08.793Z,101005.28
2023-09-05T14:31:36.620Z,101007.34
2023-09-05T14:34:05.848Z,101000.72
2023-09-05T14:36:33.713Z,101003.53
2023-09-05T14:39:01.491Z,101001.44
2023-09-05T14:41:32.893Z,101010.06
2023-09-05T14:44:04.507Z,101010.19
2023-09-05T14:46:34.388Z,101006.47
2023-09-05T14:49:03.141Z,100997.22
2023-09-05T14:51:32.923Z,101021.66
2023-09-05T14:54:00.740Z,101011.41
2023-09-05T14:56:28.512Z,101007.84
2023-09-05T14:58:56.231Z,101012.13
2023-09-05T15:01:24.112Z,101003.47
2023-09-05T15:03:52.032Z,101004.63
2023-09-05T15:06:19.938Z,100994.53
2023-09-05T15:08:49.020Z,100996.06
2023-09-05T15:11:17.158Z,100994.66
2023-09-05T15:13:47.399Z,100985.75
2023-09-05T15:16:15.313Z,100988.66
2023-09-05T15:18:43.208Z,100982.47
2023-09-05T15:21:11.676Z,100983.28
2023-09-05T15:23:39.581Z,100990.97
2023-09-05T15:26:08.706Z,100982.47
2023-09-05T15:28:36.913Z,100980.56
2023-09-05T15:31:06.077Z,100977.34
2023-09-05T15:33:34.225Z,100976.78
2023-09-05T15:36:02.421Z,100979.72
2023-09-05T15:38:30.475Z,100987.84
2023-09-05T15:40:58.393Z,100976.75
2023-09-05T15:43:28.136Z,100976.44
2023-09-05T15:46:00.505Z,100980.38
2023-09-05T15:48:28.766Z,100975.09
2023-09-05T15:50:56.922Z,100973.75
2023-09-05T15:53:24.911Z,100974.91
2023-09-05T15:55:54.952Z,100976.06
2023-09-05T15:58:22.898Z,100976.34
2023-09-05T16:00:52.717Z,100977.47
2023-09-05T16:03:21.228Z,100982.50
2023-09-05T16:05:49.963Z,100986.78
2023-09-05T16:08:17.783Z,100975.31
2023-09-05T16:10:46.083Z,100985.59
2023-09-05T16:13:13.926Z,100987.38
2023-09-05T16:15:41.905Z,100984.59
2023-09-05T16:18:11.163Z,100984.28
2023-09-05T16:20:54.114Z,100987.09
2023-09-05T16:23:24.096Z,100985.31
2023-09-05T16:25:52.389Z,100986.91
2023-09-05T16:28:20.452Z,100989.31
2023-09-05T16:30:48.378Z,100990.69
2023-09-05T16:33:17.838Z,100984.03
2023-09-05T16:35:46.185Z,100990.41
2023-09-05T16:38:14.142Z,100982.09
2023-09-05T16:40:41.879Z,100983.31
2023-09-05T16:43:09.630Z,100985.59
2023-09-05T16:45:37.442Z,100980.78
2023-09-05T16:48:05.589Z,100991.50
2023-09-05T16:50:34.860Z,100991.88
2023-09-05T16:53:03.796Z,100989.25
2023-09-05T16:55:32.399Z,100983.59
2023-09-05T16:58:00.290Z,100992.72
2023-09-05T17:00:28.784Z,100992.63
2023-09-05T17:02:56.940Z,100985.16
2023-09-05T17:05:24.929Z,100986.88
2023-09-05T17:07:54.241Z,100991.94
2023-09-05T17:10:21.981Z,100993.47
2023-09-05T17:12:49.844Z,101000.06
2023-09-05T17:15:17.808Z,100998.47
2023-09-05T17:17:45.884Z,101000.38
2023-09-05T17:20:13.847Z,100996.91
2023-09-05T17:22:43.720Z,100999.94
2023-09-05T17:25:15.867Z,100998.97
2023-09-05T17:27:46.457Z,101002.34
2023-09-05T17:30:14.774Z,100999.38
2023-09-05T17:32:42.709Z,101003.09
2023-09-05T17:35:11.204Z,100994.44
2023-09-05T17:37:41.386Z,100999.50
2023-09-05T17:40:10.312Z,100998.06
2023-09-05T17:42:39.766Z,100998.13
2023-09-05T17:45:09.260Z,100998.63
2023-09-05T17:47:37.192Z,101010.69
2023-09-05T17:50:05.594Z,101016.38
2023-09-05T17:52:34.156Z,101014.56
2023-09-05T17:55:02.030Z,101026.56
2023-09-05T17:57:30.141Z,101027.88
2023-09-05T17:59:59.451Z,101027.72
2023-09-05T18:02:27.299Z,101031.69
2023-09-05T18:04:55.215Z,101033.31
2023-09-05T18:07:24.022Z,101037.59
2023-09-05T18:09:54.202Z,101032.19
2023-09-05T18:12:22.111Z,101031.81
2023-09-05T18:14:50.003Z,101049.06
2023-09-05T18:17:19.128Z,101046.28
2023-09-05T18:19:47.475Z,101049.16
2023-09-05T18:22:15.535Z,101050.72
2023-09-05T18:24:43.376Z,101053.19
2023-09-05T18:27:11.443Z,101059.28
2023-09-05T18:29:39.381Z,101051.72
2023-09-05T18:32:07.447Z,101056.31
2023-09-05T18:34:41.564Z,101058.38
2023-09-05T18:37:10.442Z,101060.75
2023-09-05T18:39:38.815Z,101071.03
2023-09-05T18:42:07.818Z,101069.78
2023-09-05T18:44:35.850Z,101063.47
2023-09-05T18:47:04.456Z,101070.47
2023-09-05T18:49:33.163Z,101072.31
2023-09-05T18:52:03.046Z,101069.41
2023-09-05T18:54:30.926Z,101075.00
2023-09-05T18:56:59.475Z,101070.75
2023-09-05T18:59:27.756Z,101071.00
2023-09-05T19:01:56.320Z,101075.03
2023-09-05T19:04:26.758Z,101076.84
2023-09-05T19:06:55.840Z,101077.69
2023-09-05T19:09:26.785Z,101074.75
2023-09-05T19:11:54.606Z,101076.81
2023-09-05T19:14:22.443Z,101078.19
2023-09-05T19:16:55.769Z,101074.38
2023-09-05T19:19:25.129Z,101063.06
2023-09-05T19:21:54.482Z,101067.94
2023-09-05T19:24:22.556Z,101075.06
2023-09-05T19:26:52.598Z,101071.59
2023-09-05T19:29:20.537Z,101065.03
2023-09-05T19:31:48.330Z,101066.69
2023-09-05T19:34:16.150Z,101058.88
2023-09-05T19:36:44.303Z,101061.03
2023-09-05T19:39:12.331Z,101058.94
2023-09-05T19:41:41.927Z,101058.53
2023-09-05T19:44:11.124Z,101060.53
2023-09-05T19:46:38.971Z,101052.97
2023-09-05T19:49:09.518Z,101059.66
2023-09-05T19:51:37.935Z,101061.63
2023-09-05T19:54:05.993Z,101063.59
2023-09-05T19:56:33.956Z,101061.13
2023-09-05T19:59:01.738Z,101064.06
2023-09-05T20:01:34.573Z,101063.69
2023-09-05T20:04:02.698Z,101062.59
2023-09-05T20:06:32.048Z,101058.56
2023-09-05T20:09:00.320Z,101065.03
2023-09-05T20:11:28.165Z,101065.59
2023-09-05T20:13:55.969Z,101062.00
2023-09-05T20:16:23.835Z,101066.81
2023-09-05T20:18:53.878Z,101054.28
2023-09-05T20:21:21.763Z,101058.22
2023-09-05T20:23:49.738Z,101059.59
2023-09-05T20:26:19.623Z,101052.50
2023-09-05T20:28:47.563Z,101051.81
2023-09-05T20:31:15.399Z,101055.84
2023-09-05T20:33:43.263Z,101054.88
2023-09-05T20:36:13.974Z,101054.88
2023-09-05T20:38:41.833Z,101058.50
2023-09-05T20:41:09.720Z,101053.19
2023-09-05T20:43:38.151Z,101065.78
2023-09-05T20:46:06.326Z,101059.91
2023-09-05T20:48:34.516Z,101068.31
2023-09-05T20:51:02.739Z,101065.25
2023-09-05T20:53:32.188Z,101063.72
2023-09-05T20:56:02.382Z,101061.47
2023-09-05T20:58:33.087Z,101072.53
2023-09-05T21:01:02.909Z,101067.81
2023-09-05T21:03:31.300Z,101073.81
2023-09-05T21:06:01.821Z,101070.72
2023-09-05T21:08:31.056Z,101066.13
2023-09-05T21:10:58.947Z,101066.56
2023-09-05T21:13:26.844Z,101070.47
2023-09-05T21:16:03.554Z,101066.13
2023-09-05T21:18:31.724Z,101076.59
2023-09-05T21:20:59.890Z,101079.53
2023-09-05T21:23:28.089Z,101080.91
2023-09-05T21:25:57.261Z,101082.88
2023-09-05T21:28:25.109Z,101081.34
2023-09-05T21:30:53.192Z,101085.25
2023-09-05T21:33:21.173Z,101077.56
2023-09-05T21:35:49.976Z,101074.75
2023-09-05T21:38:17.771Z,101065.00
2023-09-05T21:40:45.721Z,101068.91
2023-09-05T21:43:15.010Z,101066.94
2023-09-05T21:45:42.810Z,101068.69
2023-09-05T21:48:10.675Z,101077.88
2023-09-05T21:50:38.505Z,101082.19
2023-09-05T21:53:06.584Z,101079.09
2023-09-05T21:55:34.298Z,101078.53
2023-09-05T21:58:02.142Z,101084.94
2023-09-05T22:00:33.081Z,101087.16
2023-09-05T22:03:02.849Z,101091.56
2023-09-05T22:05:30.987Z,101083.84
2023-09-05T22:07:59.524Z,101093.63
2023-09-05T22:10:28.653Z,101095.53
2023-09-05T22:12:56.466Z,101091.28
2023-09-05T22:15:24.273Z,101089.09
2023-09-05T22:17:55.064Z,101090.91
2023-09-05T22:20:24.298Z,101098.63
2023-09-05T22:22:52.260Z,101094.53
2023-09-05T22:25:20.176Z,101097.25
2023-09-05T22:27:48.111Z,101095.59
2023-09-05T22:30:17.024Z,101099.03
2023-09-05T22:32:45.450Z,101098.34
2023-09-05T22:35:15.177Z,101101.94
2023-09-05T22:37:42.953Z,101103.63
2023-09-05T22:40:15.836Z,101113.31
2023-09-05T22:42:43.730Z,101113.78
2023-09-05T22:45:12.466Z,101110.72
2023-09-05T22:47:42.010Z,101115.00
2023-09-05T22:50:11.488Z,101114.84
2023-09-05T22:52:41.007Z,101111.00
2023-09-05T22:55:10.123Z,101113.38
2023-09-05T22:57:37.951Z,101116.72
2023-09-05T23:00:10.230Z,101109.47
2023-09-05T23:02:38.621Z,101119.75
2023-09-05T23:05:07.259Z,101109.91
2023-09-05T23:07:35.247Z,101111.44
2023-09-05T23:10:04.787Z,101108.91
2023-09-05T23:12:32.599Z,101112.72
2023-09-05T23:15:00.406Z,101113.16
2023-09-05T23:17:30.809Z,101107.84
2023-09-05T23:20:00.040Z,101112.13
2023-09-05T23:22:28.642Z,101117.06
2023-09-05T23:24:56.542Z,101121.31
2023-09-05T23:27:25.846Z,101123.88
2023-09-05T23:29:54.096Z,101127.88
2023-09-05T23:32:22.668Z,101127.28
2023-09-05T23:34:50.514Z,101123.19
2023-09-05T23:37:18.303Z,101131.28
2023-09-05T23:39:47.439Z,101129.59
2023-09-05T23:42:16.407Z,101127.91
2023-09-05T23:44:45.568Z,101128.66
2023-09-05T23:47:13.474Z,101123.28
2023-09-05T23:49:41.343Z,101120.41
2023-09-05T23:52:09.169Z,101119.25
2023-09-05T23:54:37.134Z,101124.31
2023-09-05T23:57:05.428Z,101124.09
2023-09-05T23:59:33.740Z,101122.41
